22ème Rallye Terre des Causses
Championnat de France des Rallyes sur Terre
1 1 CUOQ Jean-Marie/GRANDEMANGE Marielle Citroën C4 WRC FA 8W 11:52,8 106km/h 1
2 3 MAURIN Julien/URAL Olivier Citroën DS3 WRC A 8W 12:02,9 +00:10,1 +00:10,1 1
3 11 GILBERT Quentin/JAMOUL Renaud Skoda Fabia R5 R 5 12:32,0 +00:39,2 +00:29,1
4 4 DURBEC Thibault/RENUCCI Jacques-Julien Citroën DS3 WRC A 8W 12:32,8 +00:40,0 +00:00,8 1
5 12 BERFA Jordan/AUGUSTIN Damien HUYNDAI i20 R5 R 5 12:33,8 +00:41,0 +00:01,0 1
6 18 PONS Xavier/ORIOL Julia Peugeot 208 T16 R 5 12:45,9 +00:53,1 +00:12,1
7 9 FERAUD Cyrille/DUCHEMIN Aymeric Citroën C4 WRC FA 8W 12:46,6 +00:53,8 +00:00,7 1
8 8 RAOUX Jean-Michel/MAGAT Laurent Citroën DS3 WRC A 8W 12:47,9 +00:55,1 +00:01,3 1
9 7 CLOT Charles/LEON Thierry Ford Fiesta WRC A 8W 13:02,1 +01:09,3 +00:14,2 1
10 6 ROUSSET Eric/GOSSET Jean-David Citroën Xsara WRC FA 8W 13:04,1 +01:11,3 +00:02,0
11 5 CHAYNES Gary/TRIBOUT Christian Citroën C4 WRC FA 8W 13:16,5 +01:23,7 +00:12,4 1
12 16 PETIT Jean-Eric/MAURIN Mathieu Ford Fiesta R5 R 5 13:42,3 +01:49,5 +00:25,8 1
13 54 PELLIER Laurent/NEYRET-GIGOT Benoît Peugeot 208 VTI R 2 13:50,4 +01:57,6 +00:08,1 3
14 59 RIBAUD Quentin/BALME Benoît Peugeot 208 VTI R 2 13:52,6 +01:59,8 +00:02,2 1 2 3
15 60 LARIO Taisko/RYYNANEN Sami Peugeot 208 VTI R 2 13:53,2 +02:00,4 +00:00,6 3
16 70 PINHEIRO Karl-Alexandre/LE FLOCH Franck Peugeot 208 VTI R 2 13:55,8 +02:03,0 +00:02,6 3
17 10 "PIANO"/COTTU Paolo Subaru Impreza WRC FA 8W 13:56,0 +02:03,2 +00:00,2
18 50 VEYRARD Didier/TARDY Vincent Subaru Impreza STI FN 4 13:58,9 +02:06,1 +00:02,9
19 40 MARTI Christian/LAVIALE Jean-Marc Mitsubishi Lancer Evo9 N 4 13:59,2 +02:06,4 +00:00,3 1
20 14 FALCO Jean-Marc/BOUERI Jonathan Peugeot 208 T16 R 5 13:59,3 +02:06,5 +00:00,1 1
21 35 MORDACQ Laurent/MORTIER Hervé Mitsubishi Lancer Evo9 R 4 14:03,7 +02:10,9 +00:04,4 1
22 61 GAGO Diogo/DEL BARRIO GARCIA Rodolfo Peugeot 208 VTI R 2 14:04,7 +02:11,9 +00:01,0 3
23 15 BESSON Jean-Pascal/ROISSAC Patrice Skoda Fabia R5 R 5 14:06,3 +02:13,5 +00:01,6 1
24 62 SAHILA Aki/SUORSA Rami Peugeot 208 VTI R 2 14:08,3 +02:15,5 +00:02,0 3
25 20 GAIDOZ Hervé/RICHARD François Subaru Impreza WRX FA 8 14:10,2 +02:17,4 +00:01,9 1
26 65 BOSCH Florentin/LAZZARINI Jean-Paul Peugeot 208 VTI R 2 14:12,4 +02:19,6 +00:02,2 3
27 57 LLARENA Efren/FERNANDEZ Sara Peugeot 208 VTI R 2 14:15,2 +02:22,4 +00:02,8 3
28 72 TAVENEAU Sam/POINT Clément Peugeot 208 VTI R 2 14:15,6 +02:22,8 +00:00,4 3
29 27 TARDY Guillaume/CHOUDEY Marc-Emilien Subaru Impreza FA 8 14:16,3 +02:23,5 +00:00,7
30 36 SALIN Daniel/SALIN Brigitte Subaru Impreza WRX R 4 14:16,5 +02:23,7 +00:00,2
31 37 DESANGLES Yanis/THERON Nicolas Subaru Impreza WRX R 4 14:18,5 +02:25,7 +00:02,0
32 63 WAGEMANS Joachim/DU PAN Anton Peugeot 208 VTI R 2 14:24,8 +02:32,0 +00:06,3 3
33 30 CHIAVARO Daniel/DUPANLOUP Alexandra Subaru Impreza Sti FA 8 14:25,4 +02:32,6 +00:00,6
34 23 FILLAYRE Jacques/DERRE Cyril Mitsubishi Lancer Evo4 FA 8 14:32,3 +02:39,5 +00:06,9
35 42 CONDAMINES Florian/DELMAS Cyril Subaru Impreza N 4 14:36,2 +02:43,4 +00:03,9
36 44 GUIGNARD Eric/MEFFRE Didier Subaru Impreza N 4 14:36,9 +02:44,1 +00:00,7
37 67 JAMET Jérémy/SECACHE Michaël Peugeot 208 VTI R 2 14:36,9 +02:44,1 3
38 83 MARCHAL Eddy/JOLE Damien Citroën Saxo T4 FA 6K 14:37,0 +02:44,2 +00:00,1 1
39 76 COLNEY Thierry/FORTMANN Patrick Citroën DS3 R3 R 3 14:40,9 +02:48,1 +00:03,9 1 2
40 41 FONTAINE Fabien/FONTAINE Bastien Mitsubishi Lancer Evo5 FN 4 14:41,2 +02:48,4 +00:00,3
41 81 VIALLE Lilian/GHIRARDELLO Manuel Renault Clio R3 R 3 14:41,3 +02:48,5 +00:00,1 1 2
42 71 RAMBAUD Sébastien/RICOU Brice Peugeot 208 VTI R 2 14:42,9 +02:50,1 +00:01,6 3
43 75 VENTURINI Henri/CORONA Fabrice Peugeot 208 VTI R 2 14:43,3 +02:50,5 +00:00,4 3
44 52 JULIA David/AUBERTIN Ludovic Peugeot 206 Rc F2 14 14:44,1 +02:51,3 +00:00,8 1 2
45 43 PUEL Gérard/PUEL Caroline Mitsubishi Lancer Evo8 FN 4 14:45,3 +02:52,5 +00:01,2
46 124 MASCLAUX Arnaud/CORMERAIS Loïc Renault Clio Ragnotti F2 14 14:46,3 +02:53,5 +00:01,0 1 2
47 73 MOLLARD Alexandre/EYMIN PETOT Nicolas Peugeot 208 VTI R 2 14:50,1 +02:57,3 +00:03,8 3
48 64 HAIGH-SMITH Ashley/BURNS Niall Peugeot 208 VTI R 2 14:50,9 +02:58,1 +00:00,8 3
49 46 LOPEZ Yannick/LOPEZ Brice Subaru Impreza WRX N 4 14:55,0 +03:02,2 +00:04,1
50 48 PRIOLO Laurent/DALMAS Yannick Mitsubishi Lancer Evo9 N 4 14:56,5 +03:03,7 +00:01,5
51 87 SALGUES Gilles/MOUYSSET Jérôme Citroën Saxo T4 FA 6K 14:59,0 +03:06,2 +00:02,5
52 80 GUINCHARD Emmanuel/CHATELAIN Mickaël Peugeot 207 Rc R 3 14:59,8 +03:07,0 +00:00,8
53 53 VITAL Jean-Pierre/DECOUZON Pierre Citroën Saxo VTS F2 13 15:00,2 +03:07,4 +00:00,4 1 2
54 95 GOUY Quentin/THILLIEZ Quentin Citroën C2 R2 R 2 15:01,6 +03:08,8 +00:01,4
55 132 SABATIER Florent/SANTIAGO Thomas Peugeot 106 S16 FA 6 15:02,6 +03:09,8 +00:01,0 1 2
56 116 RAYNAUD Gabriel/JULIEN William Seat Ibiza GTI F2 14 15:04,6 +03:11,8 +00:02,0 1 2
57 103 TEVELLE Cédric/FACCIO Alexandra Peugeot 206 Rc FA 7 15:05,8 +03:13,0 +00:01,2
58 17 FRAU Richard/GASTINEL Jean-Francois Ford Fiesta R5 R 5 15:10,7 +03:17,9 +00:04,9 1
59 86 MARCOBAL Thierry/MARCOBAL-BASTIDE Cantin Citroën Saxo T4 FA 6K 15:12,7 +03:19,9 +00:02,0
60 47 CAMPAGNOLI Gabriele/ARENA Nicola Subaru Impreza WRX N 4 15:12,9 +03:20,1 +00:00,2
61 113 BLANCK Lionel/BLANCK Arnaud Peugeot 206 Rc F2 14 15:14,3 +03:21,5 +00:01,4
62 98 DEFANTE Romain/TEMPIER Romain Ford Fiesta R2 R 2 15:16,1 +03:23,3 +00:01,8
63 99 FOTIA Anthony/MILLET Kévin Ford Fiesta R2 R 2 15:23,4 +03:30,6 +00:07,3
64 96 PUVERIC Gilles/LE BORGNE Didier Peugeot 208 VTI R 2 15:26,1 +03:33,3 +00:02,7
65 102 SOUFFEZ Frédéric/PRUVOST Astrid Peugeot 206 Rc FA 7 15:26,6 +03:33,8 +00:00,5 1 2
66 91 BERTON Charlotte/TAILLANDIER Thomas Citroën Saxo T4 FA 6K 15:27,3 +03:34,5 +00:00,7
67 90 COLOMBE Geoffroy/FABREGUE Régis Peugeot 206 XS FA 6K 15:28,2 +03:35,4 +00:00,9
68 111 PILLARD Cédric/NOHARET Laurent Peugeot 206 Rc F2 14 15:29,8 +03:37,0 +00:01,6 1 2
69 45 ECK Jean-Luc/ECK Aurélien Subaru Impreza N 4 15:31,8 +03:39,0 +00:02,0
70 125 BELLIARDO Daniel/BRAQUET Jean-Baptiste Peugeot 306 S16 FN 3 15:31,9 +03:39,1 +00:00,1
71 77 DAZY Jean-Pierre/LOIZEAUX Didier Renault Clio R3 R 3 15:36,1 +03:43,3 +00:04,2 1 2
72 97 MARGAILLAN Hugo/POUJOL Sébastien Ford Fiesta R2 R 2 15:37,3 +03:44,5 +00:01,2
73 21 GIRAUD Emmanuel/GIRAUD Grégory Mitsubishi Lancer Evo8 FA 8 15:41,2 +03:48,4 +00:03,9
74 33 ROUGIER Régis/SOGNO Emilien Subaru Impreza WRX FA 8 15:41,3 +03:48,5 +00:00,1
75 127 LESCURE Philippe/ESCAICH Bertrand Peugeot 306 S16 FN 3 15:41,8 +03:49,0 +00:00,5
76 89 CREPIN Maude/FRANCOIS Léa Citroën Saxo T4 FA 6K 15:44,5 +03:51,7 +00:02,7
77 78 BOUCHET Guillaume/BLAMPEY Fabien Peugeot 207 Rc R 3 15:46,5 +03:53,7 +00:02,0
78 112 REGORD Hervé/REGORD Camille Peugeot 205 GTI F2 14 15:47,6 +03:54,8 +00:01,1 1 2
79 28 GIL Stéphane/MORGET Arnaud Subaru Impreza WRX FA 8 15:51,4 +03:58,6 +00:03,8
80 149 RICHAUD Pascal/SENDJAKEDINE Mikael Suzuki Swift Sport FN 2 15:51,8 +03:59,0 +00:00,4 1 2
81 88 QUARROZ Damien/VOLPI Cécile Citroën Saxo T4 FA 6K 15:52,8 +04:00,0 +00:01,0
82 115 MORARD Philippe/GROLIER Cédric Citroën ZX 16V F2 14 15:54,2 +04:01,4 +00:01,4
83 117 ROUCOULY Mathieu/GILHODES Jean-Louis Peugeot 309 GTI 16S F2 14 15:55,5 +04:02,7 +00:01,3
84 145 BRISSON Eddy/MASSON Pascal Suzuki Swift FN 2 16:02,5 +04:09,7 +00:07,0
85 31 MARON-GIRARD Alain/GRENIER Bernard Mitsubishi Lancer Evo9 FA 8 16:03,5 +04:10,7 +00:01,0
86 136 FOURNIER Nicolas/VATTEAU Kévin Peugeot 206 XS F2 13 16:04,9 +04:12,1 +00:01,4
87 92 BRENIAUX Sébastien/JACQUES Anthony Peugeot 206 XS FA 6K 16:05,1 +04:12,3 +00:00,2
88 19 MORDACQ Arnaud/RATIER Marie-Noelle Mitsubishi Lancer Evo9 N 4 16:12,8 +04:20,0 +00:07,7 1
89 126 VANTILLARD Jean-Marc/DARRAS Pascaline Peugeot 206 Rc FN 3 16:20,9 +04:28,1 +00:08,1
90 129 GAGNEUR Hervé/LEIBENGUTH Christophe Peugeot 306 S16 FN 3 16:23,6 +04:30,8 +00:02,7
91 134 RALITE Christophe/ABBAL Marie Peugeot 106 S16 FA 6 16:25,0 +04:32,2 +00:01,4
92 120 RIEU Vincent/DEIXONNE Charles Renault Clio Ragnotti F2 14 16:29,5 +04:36,7 +00:04,5
93 119 MOULIN François/BONNET Dorine Renault Clio RS F2 14 16:31,5 +04:38,7 +00:02,0
94 140 VAYSSE Adrien/LAURENS Clément Peugeot 106 S16 F2 13 16:31,6 +04:38,8 +00:00,1
95 107 ROCHER Arnaud/PAULHAN Sabine Renault Clio RS FA 7 16:33,6 +04:40,8 +00:02,0
96 135 RAMEL Olivier/BODENMANN Jacques-Victor Peugeot 106 GT FA 6 16:35,6 +04:42,8 +00:02,0
97 106 GELLUSSEAU Luc/DEJOUX Charly Peugeot 306 S16 FA 7 16:38,3 +04:45,5 +00:02,7
98 148 LATIEZE Yvan/GOUY Cindy Peugeot 106 S16 FN 2 16:45,5 +04:52,7 +00:07,2
99 146 DOLGOPYATOFF Damien/FRANCOIS Solene Suzuki Swift FN 2 16:52,4 +04:59,6 +00:06,9
100 39 BENIER Thomas/PRASSE Cédric Subaru Impreza WRX N 4 16:59,4 +05:06,6 +00:07,0 1
101 137 RAKOTOMALALA Andry/GORGET Chloé Peugeot 106 S16 F2 13 16:59,6 +05:06,8 +00:00,2
102 142 BRENGUES Jean-Marie/BRENGUES Mélanie Peugeot 205 GTI F2 13 17:00,9 +05:08,1 +00:01,3
103 108 GUILLON Jean-Luc/GUILLON Thibault Peugeot 206 GT FA 7 17:03,6 +05:10,8 +00:02,7
104 150 VAILLE Mickaël/SAVA-LOPEZ Sabrina Peugeot 205 GTI FN 2 17:10,1 +05:17,3 +00:06,5
105 152 VUITTENEZ Victorien/COTE COLISSON Maxime Peugeot 106 XSI FN 1 17:17,2 +05:24,4 +00:07,1
106 139 GELY Michel/VALENTIN Cédric Peugeot 206 XS F2 13 17:22,1 +05:29,3 +00:04,9
107 104 FRELAUT Yohann/CASSAGNADE Pascal Peugeot 206 Rc FA 7 17:22,3 +05:29,5 +00:00,2
108 144 TODESCHINI Florent/PORCHERON Giovanni Dacia Logan F2 13 17:22,9 +05:30,1 +00:00,6
109 130 RESSOUCHE Charlotte/BARDOUX Pauline Ford Fiesta ST N 3 17:31,1 +05:38,3 +00:08,2
110 153 CEUGNET Sébastien/LUCON Pascal Peugeot 106 XSI FN 1 17:34,3 +05:41,5 +00:03,2
111 151 ROCHE Ivan/GREVOT Florian Peugeot 106 XSI F2 12 17:37,9 +05:45,1 +00:03,6 1 2
112 38 MOREL Jean-Luc/GIDEL Philippe Subaru Impreza WRX FN 4 17:38,1 +05:45,3 +00:00,2
113 26 GLEY Jean-Pierre/AUBANEL Aurélien B.M.W. 325 iX FA 8 17:44,8 +05:52,0 +00:06,7
114 154 BES Yves/LE PICHON Christelle Peugeot 106 XR F2 11 18:20,0 +06:27,2 +00:35,2
115 155 SOUBIROUX Vincent/VIGUIE Florian Renault Clio F2 11 19:29,2 +07:36,4 +01:09,2
116 141 PICARD Erick/PONTILLE Hervé Dacia Logan F2 13 19:32,7 +07:39,9 +00:03,5
117 147 DI PAOLO Alain/MORILLON Frederika Peugeot 106 S16 FN 2 19:47,8 +07:55,0 +00:15,1
118 105 GAUTHIER Bernard/BLANQUET Muriel Peugeot 306 S16 FA 7 21:40,5 +09:47,7 +01:52,7
Clt Equipage Voiture Gr/Cl Temps Ecart 1er Ecart préc. Catégories
Commentaires: © PatricK Soft  
(Temps forfaitaires=couleur bleue)
Classés:118

Epreuve: Groupe: Catégorie:

 
Retour
Classement ES6-Gelles - Mas de Cance (21.000 km)